createdAt,value
2017-11-21T00:00:47.118Z,46.78
2017-11-21T00:02:50.410Z,46.79
2017-11-21T00:04:53.778Z,46.79
2017-11-21T00:06:57.276Z,46.79
2017-11-21T00:09:00.565Z,46.80
2017-11-21T00:11:03.857Z,46.79
2017-11-21T00:13:07.169Z,46.80
2017-11-21T00:15:10.461Z,46.79
2017-11-21T00:17:13.919Z,46.81
2017-11-21T00:19:17.235Z,46.81
2017-11-21T00:21:20.525Z,46.81
2017-11-21T00:23:23.904Z,46.81
2017-11-21T00:25:27.217Z,46.82
2017-11-21T00:27:30.572Z,46.82
2017-11-21T00:29:33.973Z,46.81
2017-11-21T00:31:37.289Z,46.81
2017-11-21T00:33:40.673Z,46.82
2017-11-21T00:35:43.977Z,46.83
2017-11-21T00:37:47.284Z,46.83
2017-11-21T00:39:50.612Z,46.83
2017-11-21T00:41:54.011Z,46.83
2017-11-21T00:43:57.402Z,46.83
2017-11-21T00:46:00.690Z,46.83
2017-11-21T00:48:03.981Z,46.81
2017-11-21T00:50:07.295Z,46.82
2017-11-21T00:52:10.590Z,46.83
2017-11-21T00:54:13.953Z,46.83
2017-11-21T00:56:17.274Z,46.83
2017-11-21T00:58:20.557Z,46.84
2017-11-21T01:00:23.928Z,46.85
2017-11-21T01:02:27.241Z,46.85
2017-11-21T01:04:30.530Z,46.85
2017-11-21T01:06:33.821Z,46.86
2017-11-21T01:08:37.168Z,46.86
2017-11-21T01:10:40.470Z,46.86
2017-11-21T01:12:43.766Z,46.87
2017-11-21T01:14:47.077Z,46.87
2017-11-21T01:16:50.387Z,46.86
2017-11-21T01:18:53.731Z,46.87
2017-11-21T01:20:57.128Z,46.88
2017-11-21T01:23:00.478Z,46.88
2017-11-21T01:25:03.769Z,46.88
2017-11-21T01:27:07.082Z,46.88
2017-11-21T01:29:10.369Z,46.89
2017-11-21T01:31:13.661Z,46.89
2017-11-21T01:33:16.973Z,46.88
2017-11-21T01:35:20.353Z,46.88
2017-11-21T01:37:23.649Z,46.89
2017-11-21T01:39:26.952Z,46.89
2017-11-21T01:41:30.250Z,46.88
2017-11-21T01:43:33.542Z,46.89
2017-11-21T01:45:37.104Z,46.89
2017-11-21T01:47:40.394Z,46.89
2017-11-21T01:49:43.684Z,46.89
2017-11-21T01:51:47.001Z,46.89
2017-11-21T01:53:50.292Z,46.90
2017-11-21T01:55:53.582Z,46.91
2017-11-21T01:57:56.898Z,46.91
2017-11-21T02:00:00.193Z,46.89
2017-11-21T02:02:03.528Z,46.90
2017-11-21T02:04:06.883Z,46.89
2017-11-21T02:06:10.205Z,46.90
2017-11-21T02:08:13.501Z,46.91
2017-11-21T02:10:16.886Z,46.91
2017-11-21T02:12:20.281Z,46.91
2017-11-21T02:14:23.642Z,46.91
2017-11-21T02:16:27.066Z,46.92
2017-11-21T02:18:30.357Z,46.92
2017-11-21T02:20:34.052Z,46.94
2017-11-21T02:22:37.377Z,46.92
2017-11-21T02:24:40.669Z,46.94
2017-11-21T02:26:44.022Z,46.94
2017-11-21T02:28:47.401Z,46.94
2017-11-21T02:30:50.691Z,46.92
2017-11-21T02:32:53.988Z,46.94
2017-11-21T02:34:57.381Z,46.94
2017-11-21T02:37:00.677Z,46.94
2017-11-21T02:39:03.957Z,46.92
2017-11-21T02:41:07.355Z,46.92
2017-11-21T02:43:10.654Z,46.94
2017-11-21T02:45:13.955Z,46.94
2017-11-21T02:47:17.269Z,46.94
2017-11-21T02:49:20.611Z,46.94
2017-11-21T02:51:23.901Z,46.94
2017-11-21T02:53:27.204Z,46.94
2017-11-21T02:55:30.582Z,46.94
2017-11-21T02:57:33.977Z,46.95
2017-11-21T02:59:37.370Z,46.94
2017-11-21T03:01:40.666Z,46.95
2017-11-21T03:03:44.115Z,46.95
2017-11-21T03:05:47.415Z,46.95
2017-11-21T03:07:50.709Z,46.96
2017-11-21T03:09:54.019Z,46.96
2017-11-21T03:11:57.390Z,46.96
2017-11-21T03:14:00.741Z,46.96
2017-11-21T03:16:04.029Z,46.96
2017-11-21T03:18:07.354Z,46.96
2017-11-21T03:20:22.499Z,46.96
2017-11-21T03:22:37.786Z,46.97
2017-11-21T03:24:52.885Z,46.98
2017-11-21T03:29:35.090Z,47.00
2017-11-21T03:31:38.464Z,47.00
2017-11-21T03:33:41.753Z,47.01
2017-11-21T03:35:45.089Z,47.01
2017-11-21T03:37:48.405Z,47.00
2017-11-21T03:39:51.778Z,47.00
2017-11-21T03:41:55.140Z,47.01
2017-11-21T03:43:58.451Z,47.00
2017-11-21T03:46:01.740Z,47.01
2017-11-21T03:48:05.035Z,47.01
2017-11-21T03:50:08.355Z,47.01
2017-11-21T03:52:11.689Z,47.01
2017-11-21T03:54:15.081Z,47.01
2017-11-21T03:56:18.393Z,47.02
2017-11-21T03:58:21.682Z,47.02
2017-11-21T04:00:25.017Z,47.02
2017-11-21T04:02:28.357Z,47.01
2017-11-21T04:04:31.649Z,47.02
2017-11-21T04:06:34.947Z,47.03
2017-11-21T04:08:38.315Z,47.03
2017-11-21T04:10:41.705Z,47.03
2017-11-21T04:12:45.165Z,47.02
2017-11-21T04:14:48.477Z,47.03
2017-11-21T04:16:51.765Z,47.04
2017-11-21T04:18:55.062Z,47.03
2017-11-21T04:20:58.377Z,47.03
2017-11-21T04:23:01.668Z,47.04
2017-11-21T04:25:05.043Z,47.03
2017-11-21T04:27:08.349Z,47.03
2017-11-21T04:29:11.655Z,47.03
2017-11-21T04:31:15.009Z,47.04
2017-11-21T04:33:18.324Z,47.04
2017-11-21T04:35:21.689Z,47.05
2017-11-21T04:37:24.985Z,47.06
2017-11-21T04:39:28.310Z,47.06
2017-11-21T04:41:31.605Z,47.06
2017-11-21T04:43:34.955Z,47.06
2017-11-21T04:45:38.339Z,47.07
2017-11-21T04:47:41.628Z,47.07
2017-11-21T04:49:44.916Z,47.07
2017-11-21T04:51:48.229Z,47.08
2017-11-21T04:53:51.700Z,47.09
2017-11-21T04:55:54.989Z,47.08
2017-11-21T04:57:58.327Z,47.08
2017-11-21T05:00:01.626Z,47.08
2017-11-21T05:02:04.924Z,47.08
2017-11-21T05:04:08.230Z,47.08
2017-11-21T05:06:11.543Z,47.07
2017-11-21T05:08:14.845Z,47.07
2017-11-21T05:10:18.220Z,47.09
2017-11-21T05:12:21.686Z,47.08
2017-11-21T05:14:25.108Z,47.09
2017-11-21T05:16:28.473Z,47.09
2017-11-21T05:18:32.714Z,47.10
2017-11-21T05:20:36.006Z,47.10
2017-11-21T05:22:39.329Z,47.10
2017-11-21T05:24:42.618Z,47.12
2017-11-21T05:26:45.918Z,47.12
2017-11-21T05:28:49.261Z,47.12
2017-11-21T05:30:52.549Z,47.10
2017-11-21T05:33:07.818Z,47.10
2017-11-21T05:35:11.142Z,47.12
2017-11-21T05:37:14.469Z,47.13
2017-11-21T05:39:17.810Z,47.13
2017-11-21T05:41:21.253Z,47.13
2017-11-21T05:43:24.532Z,47.13
2017-11-21T05:45:27.882Z,47.14
2017-11-21T05:47:31.247Z,47.14
2017-11-21T05:49:34.545Z,47.14
2017-11-21T05:51:37.934Z,47.14
2017-11-21T05:53:41.244Z,47.12
2017-11-21T05:55:44.622Z,47.13
2017-11-21T05:57:47.912Z,47.14
2017-11-21T05:59:51.224Z,47.14
2017-11-21T06:01:54.655Z,47.13
2017-11-21T06:03:57.925Z,47.14
2017-11-21T06:06:01.315Z,47.14
2017-11-21T06:08:04.675Z,47.14
2017-11-21T06:10:08.053Z,47.14
2017-11-21T06:12:11.396Z,47.14
2017-11-21T06:14:14.689Z,47.14
2017-11-21T06:16:18.081Z,47.14
2017-11-21T06:18:21.393Z,47.14
2017-11-21T06:20:24.704Z,47.14
2017-11-21T06:22:28.093Z,47.13
2017-11-21T06:24:31.409Z,47.14
2017-11-21T06:26:34.712Z,47.14
2017-11-21T06:28:38.069Z,47.12
2017-11-21T06:30:41.421Z,47.12
2017-11-21T06:32:44.749Z,47.12
2017-11-21T06:34:48.034Z,47.11
2017-11-21T06:36:51.358Z,47.11
2017-11-21T06:38:54.718Z,47.10
2017-11-21T06:40:58.014Z,47.10
2017-11-21T06:43:01.323Z,47.10
2017-11-21T06:45:04.625Z,47.08
2017-11-21T06:47:07.976Z,47.08
2017-11-21T06:49:11.302Z,47.08
2017-11-21T06:51:14.669Z,47.07
2017-11-21T06:53:17.961Z,47.06
2017-11-21T06:55:21.306Z,47.05
2017-11-21T06:57:24.622Z,47.06
2017-11-21T06:59:27.973Z,47.04
2017-11-21T07:01:31.335Z,47.04
2017-11-21T07:03:34.822Z,47.03
2017-11-21T07:05:38.104Z,47.03
2017-11-21T07:07:41.489Z,47.02
2017-11-21T07:09:44.777Z,47.02
2017-11-21T07:11:48.166Z,47.01
2017-11-21T07:13:51.483Z,47.01
2017-11-21T07:15:54.815Z,47.01
2017-11-21T07:17:58.241Z,47.02
2017-11-21T07:20:01.608Z,47.04
2017-11-21T07:22:05.030Z,47.28
2017-11-21T07:24:08.413Z,47.54
2017-11-21T07:26:11.753Z,47.82
2017-11-21T07:28:15.064Z,47.91
2017-11-21T07:30:18.358Z,47.99
2017-11-21T07:32:21.705Z,47.96
2017-11-21T07:34:24.989Z,48.20
2017-11-21T07:36:28.281Z,48.22
2017-11-21T07:38:31.640Z,48.11
2017-11-21T07:40:34.930Z,48.16
2017-11-21T07:42:38.212Z,48.27
2017-11-21T07:44:41.537Z,48.34
2017-11-21T07:46:44.824Z,48.20
2017-11-21T07:48:48.589Z,48.09
2017-11-21T07:50:51.917Z,48.10
2017-11-21T07:52:55.229Z,48.02
2017-11-21T07:54:58.584Z,47.99
2017-11-21T07:57:01.914Z,47.96
2017-11-21T07:59:05.264Z,47.94
2017-11-21T08:01:08.578Z,47.89
2017-11-21T08:03:11.959Z,47.94
2017-11-21T08:05:15.341Z,47.93
2017-11-21T08:07:18.724Z,47.93
2017-11-21T08:09:22.085Z,47.88
2017-11-21T08:11:25.451Z,47.80
2017-11-21T08:13:28.732Z,47.82
2017-11-21T08:15:32.085Z,47.79
2017-11-21T08:17:35.400Z,47.82
2017-11-21T08:19:38.965Z,47.84
2017-11-21T08:21:42.289Z,47.80
2017-11-21T08:23:45.645Z,47.74
2017-11-21T08:25:48.941Z,47.71
2017-11-21T08:27:52.431Z,47.66
2017-11-21T08:29:55.892Z,47.73
2017-11-21T08:31:59.177Z,47.70
2017-11-21T08:34:02.574Z,47.73
2017-11-21T08:36:06.066Z,47.77
2017-11-21T08:38:09.498Z,47.71
2017-11-21T08:40:12.889Z,47.69
2017-11-21T08:42:16.292Z,47.68
2017-11-21T08:44:19.778Z,47.65
2017-11-21T08:46:23.167Z,47.63
2017-11-21T08:48:26.542Z,47.46
2017-11-21T08:50:30.876Z,47.54
2017-11-21T08:52:34.306Z,47.56
2017-11-21T08:54:37.776Z,47.54
2017-11-21T08:56:41.155Z,47.50
2017-11-21T08:58:44.531Z,47.50
2017-11-21T09:00:47.895Z,47.50
2017-11-21T09:02:51.331Z,47.50
2017-11-21T09:04:54.981Z,47.49
2017-11-21T09:06:58.427Z,47.53
2017-11-21T09:09:01.820Z,47.56
2017-11-21T09:11:05.202Z,47.55
2017-11-21T09:13:08.614Z,47.51
2017-11-21T09:15:11.988Z,47.48
2017-11-21T09:17:15.415Z,47.52
2017-11-21T09:19:18.767Z,47.50
2017-11-21T09:21:22.290Z,47.47
2017-11-21T09:23:25.662Z,47.46
2017-11-21T09:25:29.050Z,47.45
2017-11-21T09:27:32.429Z,47.45
2017-11-21T09:29:35.836Z,47.43
2017-11-21T09:31:39.193Z,47.48
2017-11-21T09:33:42.571Z,47.51
2017-11-21T09:35:45.972Z,47.55
2017-11-21T09:37:49.428Z,47.57
2017-11-21T09:39:52.798Z,47.62
2017-11-21T09:41:56.243Z,47.66
2017-11-21T09:43:59.572Z,47.75
2017-11-21T09:46:02.971Z,47.78
2017-11-21T09:48:06.357Z,47.86
2017-11-21T09:50:09.810Z,47.84
2017-11-21T09:52:13.141Z,47.85
2017-11-21T09:54:16.561Z,47.90
2017-11-21T09:56:19.927Z,47.94
2017-11-21T09:58:23.262Z,48.08
2017-11-21T10:00:26.710Z,48.11
2017-11-21T10:02:30.104Z,48.18
2017-11-21T10:04:33.494Z,48.21
2017-11-21T10:06:36.870Z,48.25
2017-11-21T10:08:40.244Z,48.25
2017-11-21T10:10:43.676Z,48.25
2017-11-21T10:12:47.171Z,48.25
2017-11-21T10:14:50.501Z,48.27
2017-11-21T10:16:53.810Z,48.25
2017-11-21T10:18:57.196Z,48.25
2017-11-21T10:21:00.497Z,48.31
2017-11-21T10:23:03.874Z,48.37
2017-11-21T10:25:07.298Z,48.38
2017-11-21T10:27:10.598Z,48.41
2017-11-21T10:29:13.890Z,48.46
2017-11-21T10:31:17.201Z,48.52
2017-11-21T10:33:20.554Z,48.56
2017-11-21T10:35:24.020Z,48.56
2017-11-21T10:37:27.419Z,48.51
2017-11-21T10:39:30.738Z,48.38
2017-11-21T10:41:34.058Z,48.35
2017-11-21T10:43:37.385Z,48.35
2017-11-21T10:45:40.681Z,48.35
2017-11-21T10:47:43.981Z,48.35
2017-11-21T10:49:47.301Z,48.31
2017-11-21T10:51:50.588Z,48.30
2017-11-21T10:53:53.885Z,48.26
2017-11-21T10:55:57.220Z,48.24
2017-11-21T10:58:00.546Z,48.22
2017-11-21T11:00:03.850Z,48.21
2017-11-21T11:02:07.169Z,48.14
2017-11-21T11:04:10.480Z,48.13
2017-11-21T11:06:13.778Z,48.11
2017-11-21T11:08:17.137Z,48.10
2017-11-21T11:10:20.489Z,48.07
2017-11-21T11:12:23.785Z,48.05
2017-11-21T11:14:27.120Z,48.04
2017-11-21T11:16:30.416Z,48.05
2017-11-21T11:18:33.744Z,48.05
2017-11-21T11:20:37.081Z,48.10
2017-11-21T11:22:40.442Z,48.09
2017-11-21T11:24:43.787Z,48.12
2017-11-21T11:26:47.113Z,48.13
2017-11-21T11:28:50.426Z,48.20
2017-11-21T11:30:53.718Z,48.23
2017-11-21T11:32:57.071Z,48.25
2017-11-21T11:35:00.354Z,48.24
2017-11-21T11:37:03.653Z,48.23
2017-11-21T11:39:06.989Z,48.27
2017-11-21T11:41:10.290Z,48.28
2017-11-21T11:43:13.602Z,48.31
2017-11-21T11:45:17.062Z,48.34
2017-11-21T11:47:20.579Z,48.41
2017-11-21T11:49:23.907Z,48.49
2017-11-21T11:51:27.403Z,48.52
2017-11-21T11:53:30.796Z,48.53
2017-11-21T11:55:34.097Z,48.51
2017-11-21T11:57:37.446Z,48.47
2017-11-21T11:59:40.781Z,48.42
2017-11-21T12:01:44.121Z,48.39
2017-11-21T12:03:47.463Z,48.41
2017-11-21T12:05:50.757Z,48.52
2017-11-21T12:07:54.138Z,48.62
2017-11-21T12:09:57.468Z,48.66
2017-11-21T12:12:00.880Z,48.74
2017-11-21T12:14:04.208Z,48.75
2017-11-21T12:16:07.611Z,48.76
2017-11-21T12:18:10.927Z,48.78
2017-11-21T12:20:14.233Z,48.77
2017-11-21T12:22:18.480Z,48.74
2017-11-21T12:24:21.935Z,48.73
2017-11-21T12:26:25.406Z,48.67
2017-11-21T12:28:28.878Z,48.62
2017-11-21T12:30:32.230Z,48.59
2017-11-21T12:32:35.656Z,48.56
2017-11-21T12:34:39.022Z,48.57
2017-11-21T12:36:42.414Z,48.55
2017-11-21T12:38:45.897Z,48.55
2017-11-21T12:40:49.243Z,48.51
2017-11-21T12:42:52.540Z,48.55
2017-11-21T12:44:55.846Z,48.55
2017-11-21T12:46:59.178Z,48.55
2017-11-21T12:49:02.473Z,48.55
2017-11-21T12:51:05.786Z,48.55
2017-11-21T12:53:09.217Z,48.55
2017-11-21T12:55:12.513Z,48.55
2017-11-21T12:57:15.815Z,48.56
2017-11-21T12:59:19.137Z,48.57
2017-11-21T13:01:22.451Z,48.57
2017-11-21T13:03:25.751Z,48.58
2017-11-21T13:05:29.084Z,48.57
2017-11-21T13:07:32.498Z,48.69
2017-11-21T13:09:35.837Z,49.04
2017-11-21T13:11:39.294Z,49.04
2017-11-21T13:13:42.690Z,49.03
2017-11-21T13:15:46.029Z,49.06
2017-11-21T13:17:49.455Z,49.16
2017-11-21T13:19:52.839Z,49.24
2017-11-21T13:21:56.258Z,49.10
2017-11-21T13:23:59.625Z,49.14
2017-11-21T13:26:02.945Z,49.04
2017-11-21T13:28:06.374Z,49.01
2017-11-21T13:30:09.691Z,49.05
2017-11-21T13:32:12.981Z,49.02
2017-11-21T13:34:16.300Z,48.89
2017-11-21T13:36:19.781Z,48.93
2017-11-21T13:38:23.126Z,48.90
2017-11-21T13:40:26.484Z,48.94
2017-11-21T13:42:29.858Z,48.88
2017-11-21T13:44:33.164Z,48.87
2017-11-21T13:46:36.478Z,48.85
2017-11-21T13:48:39.853Z,48.95
2017-11-21T13:50:43.248Z,48.96
2017-11-21T13:52:47.489Z,48.98
2017-11-21T13:54:50.851Z,49.08
2017-11-21T13:56:54.207Z,49.06
2017-11-21T13:58:57.504Z,49.14
2017-11-21T14:01:00.858Z,49.25
2017-11-21T14:03:04.269Z,49.19
2017-11-21T14:05:07.568Z,49.29
2017-11-21T14:07:10.881Z,49.25
2017-11-21T14:09:14.246Z,49.39
2017-11-21T14:11:18.028Z,49.39
2017-11-21T14:13:23.301Z,49.42
2017-11-21T14:15:26.621Z,49.41
2017-11-21T14:17:30.070Z,49.42
2017-11-21T14:19:33.454Z,49.47
2017-11-21T14:21:36.756Z,49.56
2017-11-21T14:23:40.132Z,49.57
2017-11-21T14:25:43.486Z,49.57
2017-11-21T14:27:52.194Z,49.57
2017-11-21T14:29:55.596Z,49.56
2017-11-21T14:31:58.925Z,49.52
2017-11-21T14:34:02.218Z,49.52
2017-11-21T14:36:05.714Z,49.52
2017-11-21T14:38:09.060Z,49.53
2017-11-21T14:40:12.397Z,49.55
2017-11-21T14:42:15.693Z,49.75
2017-11-21T14:44:19.004Z,49.82
2017-11-21T14:46:22.301Z,49.85
2017-11-21T14:48:25.612Z,49.78
2017-11-21T14:50:28.925Z,49.83
2017-11-21T14:52:32.213Z,49.95
2017-11-21T14:54:35.514Z,50.01
2017-11-21T14:56:38.977Z,50.06
2017-11-21T14:58:42.261Z,50.02
2017-11-21T15:00:45.588Z,50.00
2017-11-21T15:02:48.992Z,50.00
2017-11-21T15:04:52.305Z,49.96
2017-11-21T15:06:55.585Z,49.93
2017-11-21T15:08:58.904Z,49.89
2017-11-21T15:11:02.189Z,49.86
2017-11-21T15:13:05.533Z,49.96
2017-11-21T15:15:08.867Z,50.00
2017-11-21T15:17:12.218Z,49.94
2017-11-21T15:19:15.570Z,49.93
2017-11-21T15:21:18.883Z,49.92
2017-11-21T15:23:22.177Z,50.15
2017-11-21T15:25:25.469Z,50.14
2017-11-21T15:27:28.930Z,50.16
2017-11-21T15:29:32.261Z,50.10
2017-11-21T15:31:35.639Z,50.15
2017-11-21T15:33:38.950Z,50.01
2017-11-21T15:35:42.334Z,49.94
2017-11-21T15:37:45.625Z,50.19
2017-11-21T15:39:48.948Z,50.26
2017-11-21T15:41:52.309Z,50.31
2017-11-21T15:43:55.598Z,50.26
2017-11-21T15:45:58.972Z,50.25
2017-11-21T15:48:02.334Z,50.20
2017-11-21T15:50:05.619Z,50.12
2017-11-21T15:52:08.939Z,50.14
2017-11-21T15:54:13.056Z,50.11
2017-11-21T15:56:16.378Z,50.05
2017-11-21T15:58:19.704Z,50.07
2017-11-21T16:00:23.052Z,50.01
2017-11-21T16:02:26.336Z,50.01
2017-11-21T16:04:29.672Z,50.02
2017-11-21T16:06:33.002Z,50.28
2017-11-21T16:08:36.393Z,50.31
2017-11-21T16:10:39.814Z,50.30
2017-11-21T16:12:43.845Z,50.34
2017-11-21T16:14:47.154Z,50.38
2017-11-21T16:16:50.470Z,50.41
2017-11-21T16:18:53.772Z,50.45
2017-11-21T16:20:57.091Z,50.51
2017-11-21T16:23:00.393Z,50.54
2017-11-21T16:25:03.755Z,50.58
2017-11-21T16:27:07.733Z,50.56
2017-11-21T16:29:11.398Z,50.54
2017-11-21T16:31:14.751Z,50.57
2017-11-21T16:33:18.353Z,50.55
2017-11-21T16:35:22.442Z,50.50
2017-11-21T16:37:25.749Z,50.47
2017-11-21T16:39:29.440Z,50.46
2017-11-21T16:41:32.779Z,50.44
2017-11-21T16:43:36.103Z,50.35
2017-11-21T16:45:39.521Z,50.34
2017-11-21T16:47:43.806Z,50.26
2017-11-21T16:49:47.198Z,50.42
2017-11-21T16:51:50.487Z,50.52
2017-11-21T16:53:53.852Z,50.52
2017-11-21T16:55:57.156Z,50.53
2017-11-21T16:58:00.458Z,50.46
2017-11-21T17:00:03.773Z,50.46
2017-11-21T17:02:07.097Z,50.43
2017-11-21T17:04:10.390Z,50.35
2017-11-21T17:06:13.700Z,50.25
2017-11-21T17:08:16.994Z,50.17
2017-11-21T17:10:20.320Z,50.20
2017-11-21T17:12:23.664Z,50.18
2017-11-21T17:14:26.973Z,50.16
2017-11-21T17:16:30.381Z,50.16
2017-11-21T17:18:33.694Z,50.15
2017-11-21T17:20:37.159Z,50.13
2017-11-21T17:22:40.469Z,50.13
2017-11-21T17:24:43.830Z,50.14
2017-11-21T17:26:47.124Z,50.16
2017-11-21T17:28:51.091Z,50.18
2017-11-21T17:30:54.413Z,50.18
2017-11-21T17:32:57.712Z,50.19
2017-11-21T17:35:01.267Z,50.20
2017-11-21T17:37:04.605Z,50.22
2017-11-21T17:39:07.986Z,50.22
2017-11-21T17:41:11.385Z,50.24
2017-11-21T17:43:14.696Z,50.25
2017-11-21T17:45:18.054Z,50.26
2017-11-21T17:47:21.459Z,50.26
2017-11-21T17:49:24.870Z,50.26
2017-11-21T17:51:28.240Z,50.27
2017-11-21T17:53:33.069Z,50.26
2017-11-21T17:55:36.449Z,50.26
2017-11-21T17:57:39.749Z,50.27
2017-11-21T17:59:43.042Z,50.28
2017-11-21T18:01:46.430Z,50.27
2017-11-21T18:03:49.751Z,50.28
2017-11-21T18:05:53.058Z,50.30
2017-11-21T18:07:56.398Z,50.30
2017-11-21T18:09:59.849Z,50.32
2017-11-21T18:12:03.154Z,50.31
2017-11-21T18:14:06.530Z,50.32
2017-11-21T18:16:09.805Z,50.32
2017-11-21T18:18:13.106Z,50.34
2017-11-21T18:20:16.434Z,50.33
2017-11-21T18:22:19.729Z,50.40
2017-11-21T18:24:23.130Z,50.44
2017-11-21T18:26:26.469Z,50.47
2017-11-21T18:28:29.748Z,50.48
2017-11-21T18:30:33.239Z,50.43
2017-11-21T18:32:36.578Z,50.49
2017-11-21T18:34:39.982Z,50.54
2017-11-21T18:36:44.232Z,50.58
2017-11-21T18:38:47.555Z,50.60
2017-11-21T18:40:50.870Z,50.63
2017-11-21T18:42:54.254Z,50.64
2017-11-21T18:44:57.566Z,50.66
2017-11-21T18:47:00.859Z,50.75
2017-11-21T18:49:04.149Z,50.89
2017-11-21T18:51:07.582Z,50.92
2017-11-21T18:53:10.861Z,50.83
2017-11-21T18:55:14.158Z,50.86
2017-11-21T18:57:17.507Z,51.10
2017-11-21T18:59:20.876Z,51.30
2017-11-21T19:01:24.269Z,51.21
2017-11-21T19:03:27.665Z,51.12
2017-11-21T19:05:31.119Z,51.31
2017-11-21T19:07:34.473Z,51.41
2017-11-21T19:09:37.904Z,51.52
2017-11-21T19:11:41.177Z,51.43
2017-11-21T19:13:44.564Z,51.42
2017-11-21T19:15:47.922Z,51.51
2017-11-21T19:17:51.217Z,51.64
2017-11-21T19:19:54.790Z,51.69
2017-11-21T19:21:58.178Z,51.59
2017-11-21T19:24:01.463Z,51.55
2017-11-21T19:26:04.753Z,51.54
2017-11-21T19:28:08.098Z,51.48
2017-11-21T19:30:11.409Z,51.57
2017-11-21T19:32:14.725Z,51.57
2017-11-21T19:34:18.145Z,51.53
2017-11-21T19:36:21.449Z,51.60
2017-11-21T19:38:24.895Z,51.55
2017-11-21T19:40:28.210Z,51.53
2017-11-21T19:42:31.865Z,51.58
2017-11-21T19:44:35.361Z,51.63
2017-11-21T19:46:38.853Z,51.64
2017-11-21T19:48:42.345Z,51.87
2017-11-21T19:50:45.734Z,51.89
2017-11-21T19:52:49.188Z,51.86
2017-11-21T19:54:52.474Z,51.84
2017-11-21T19:56:56.770Z,51.87
2017-11-21T19:59:00.143Z,51.88
2017-11-21T20:01:03.461Z,51.91
2017-11-21T20:03:06.830Z,52.01
2017-11-21T20:05:10.240Z,52.00
2017-11-21T20:07:13.625Z,52.00
2017-11-21T20:09:16.989Z,52.04
2017-11-21T20:11:20.418Z,51.97
2017-11-21T20:13:23.806Z,52.01
2017-11-21T20:15:27.235Z,52.16
2017-11-21T20:17:30.686Z,52.12
2017-11-21T20:19:33.973Z,52.21
2017-11-21T20:21:37.358Z,52.28
2017-11-21T20:23:40.687Z,52.34
2017-11-21T20:25:44.046Z,52.33
2017-11-21T20:27:47.457Z,52.29
2017-11-21T20:29:50.838Z,52.33
2017-11-21T20:31:54.147Z,52.25
2017-11-21T20:33:57.454Z,52.33
2017-11-21T20:36:00.767Z,52.38
2017-11-21T20:38:04.103Z,52.54
2017-11-21T20:40:07.554Z,52.52
2017-11-21T20:42:10.979Z,52.47
2017-11-21T20:44:14.275Z,52.43
2017-11-21T20:46:17.662Z,52.37
2017-11-21T20:48:21.049Z,52.33
2017-11-21T20:50:24.387Z,52.33
2017-11-21T20:52:27.740Z,52.23
2017-11-21T20:54:31.109Z,52.18
2017-11-21T20:56:34.408Z,52.14
2017-11-21T20:58:37.712Z,52.11
2017-11-21T21:00:41.042Z,52.08
2017-11-21T21:02:44.343Z,52.03
2017-11-21T21:04:47.675Z,51.99
2017-11-21T21:06:51.017Z,51.98
2017-11-21T21:08:54.349Z,51.95
2017-11-21T21:10:57.753Z,51.90
2017-11-21T21:13:01.070Z,51.85
2017-11-21T21:15:04.430Z,51.82
2017-11-21T21:17:07.826Z,51.79
2017-11-21T21:19:11.233Z,51.77
2017-11-21T21:21:14.532Z,51.75
2017-11-21T21:23:17.831Z,51.71
2017-11-21T21:25:21.249Z,51.70
2017-11-21T21:27:36.483Z,51.67
2017-11-21T21:29:39.849Z,51.65
2017-11-21T21:31:43.169Z,51.61
2017-11-21T21:33:46.626Z,51.59
2017-11-21T21:35:49.920Z,51.57
2017-11-21T21:37:53.239Z,51.55
2017-11-21T21:39:56.534Z,51.53
2017-11-21T21:42:00.091Z,51.49
2017-11-21T21:44:03.431Z,51.49
2017-11-21T21:46:06.774Z,51.47
2017-11-21T21:48:10.073Z,51.44
2017-11-21T21:50:13.381Z,51.42
2017-11-21T21:52:16.746Z,51.39
2017-11-21T21:54:20.202Z,51.38
2017-11-21T21:56:23.496Z,51.36
2017-11-21T21:58:26.811Z,51.35
2017-11-21T22:00:30.093Z,51.33
2017-11-21T22:02:33.419Z,51.30
2017-11-21T22:04:36.749Z,51.29
2017-11-21T22:06:40.085Z,51.27
2017-11-21T22:08:43.676Z,51.26
2017-11-21T22:10:46.966Z,51.23
2017-11-21T22:12:50.274Z,51.23
2017-11-21T22:14:53.641Z,51.20
2017-11-21T22:16:56.943Z,51.20
2017-11-21T22:19:00.325Z,51.18
2017-11-21T22:21:03.716Z,51.15
2017-11-21T22:23:07.086Z,51.14
2017-11-21T22:25:10.429Z,51.15
2017-11-21T22:27:13.747Z,51.12
2017-11-21T22:29:17.078Z,51.10
2017-11-21T22:31:20.481Z,51.09
2017-11-21T22:33:23.821Z,51.07
2017-11-21T22:35:27.115Z,51.05
2017-11-21T22:37:30.418Z,51.04
2017-11-21T22:39:33.828Z,51.03
2017-11-21T22:41:37.120Z,51.03
2017-11-21T22:43:40.475Z,51.02
2017-11-21T22:45:43.798Z,50.99
2017-11-21T22:47:47.090Z,50.99
2017-11-21T22:49:50.381Z,50.96
2017-11-21T22:51:53.777Z,50.96
2017-11-21T22:53:57.098Z,50.95
2017-11-21T22:56:00.395Z,50.94
2017-11-21T22:58:03.703Z,50.93
2017-11-21T23:00:07.045Z,50.93
2017-11-21T23:02:10.425Z,50.91
2017-11-21T23:04:13.748Z,50.89
2017-11-21T23:06:17.123Z,50.88
2017-11-21T23:08:20.402Z,50.89
2017-11-21T23:10:23.785Z,50.86
2017-11-21T23:12:27.156Z,50.85
2017-11-21T23:14:30.461Z,50.84
2017-11-21T23:16:33.778Z,50.83
2017-11-21T23:18:37.079Z,50.82
2017-11-21T23:20:40.366Z,50.82
2017-11-21T23:22:43.691Z,50.82
2017-11-21T23:24:46.992Z,50.80
2017-11-21T23:26:50.322Z,50.79
2017-11-21T23:28:53.633Z,50.77
2017-11-21T23:30:56.936Z,50.77
2017-11-21T23:33:00.278Z,50.76
2017-11-21T23:35:03.597Z,50.75
2017-11-21T23:37:06.973Z,50.75
2017-11-21T23:39:10.294Z,50.75
2017-11-21T23:41:13.604Z,50.74
2017-11-21T23:43:16.906Z,50.74
2017-11-21T23:45:20.281Z,50.74
2017-11-21T23:47:23.612Z,50.72
2017-11-21T23:49:26.905Z,50.71
2017-11-21T23:51:30.262Z,50.72
2017-11-21T23:53:33.600Z,50.71
2017-11-21T23:55:36.888Z,50.70
2017-11-21T23:57:40.596Z,50.69
2017-11-21T23:59:43.918Z,50.69
